sensor_id;sensor_type;location;lat;lon;timestamp;P1;durP1;ratioP1;P2;durP2;ratioP2
68577;SDS011;61668;45.388;11.784;2023-04-24T00:00:56;21.80;;;10.70;;
68577;SDS011;61668;45.388;11.784;2023-04-24T00:03:23;22.50;;;11.00;;
68577;SDS011;61668;45.388;11.784;2023-04-24T00:05:49;21.90;;;12.50;;
68577;SDS011;61668;45.388;11.784;2023-04-24T00:08:16;22.90;;;11.80;;
68577;SDS011;61668;45.388;11.784;2023-04-24T00:10:42;23.00;;;12.00;;
68577;SDS011;61668;45.388;11.784;2023-04-24T00:13:08;23.10;;;11.90;;
68577;SDS011;61668;45.388;11.784;2023-04-24T00:15:34;26.30;;;12.00;;
68577;SDS011;61668;45.388;11.784;2023-04-24T00:18:00;24.60;;;12.80;;
68577;SDS011;61668;45.388;11.784;2023-04-24T00:20:29;23.30;;;12.60;;
68577;SDS011;61668;45.388;11.784;2023-04-24T00:22:55;23.60;;;11.60;;
68577;SDS011;61668;45.388;11.784;2023-04-24T00:25:21;25.30;;;12.70;;
68577;SDS011;61668;45.388;11.784;2023-04-24T00:27:47;22.30;;;11.50;;
68577;SDS011;61668;45.388;11.784;2023-04-24T00:30:13;25.20;;;13.40;;
68577;SDS011;61668;45.388;11.784;2023-04-24T00:32:39;24.10;;;12.20;;
68577;SDS011;61668;45.388;11.784;2023-04-24T00:35:05;25.80;;;11.90;;
68577;SDS011;61668;45.388;11.784;2023-04-24T00:37:32;23.30;;;12.20;;
68577;SDS011;61668;45.388;11.784;2023-04-24T00:39:58;25.30;;;12.50;;
68577;SDS011;61668;45.388;11.784;2023-04-24T00:42:24;26.20;;;13.30;;
68577;SDS011;61668;45.388;11.784;2023-04-24T00:44:51;25.00;;;13.10;;
68577;SDS011;61668;45.388;11.784;2023-04-24T00:47:18;25.80;;;13.40;;
68577;SDS011;61668;45.388;11.784;2023-04-24T00:49:45;26.20;;;13.70;;
68577;SDS011;61668;45.388;11.784;2023-04-24T00:52:11;25.70;;;13.90;;
68577;SDS011;61668;45.388;11.784;2023-04-24T00:54:37;25.10;;;14.00;;
68577;SDS011;61668;45.388;11.784;2023-04-24T00:57:03;27.50;;;13.80;;
68577;SDS011;61668;45.388;11.784;2023-04-24T00:59:30;28.90;;;14.40;;
68577;SDS011;61668;45.388;11.784;2023-04-24T01:01:57;30.30;;;15.70;;
68577;SDS011;61668;45.388;11.784;2023-04-24T01:04:24;28.10;;;14.10;;
68577;SDS011;61668;45.388;11.784;2023-04-24T01:06:51;29.00;;;14.40;;
68577;SDS011;61668;45.388;11.784;2023-04-24T01:09:18;26.00;;;14.40;;
68577;SDS011;61668;45.388;11.784;2023-04-24T01:11:44;27.50;;;14.10;;
68577;SDS011;61668;45.388;11.784;2023-04-24T01:14:10;24.40;;;13.40;;
68577;SDS011;61668;45.388;11.784;2023-04-24T01:16:36;26.50;;;13.90;;
68577;SDS011;61668;45.388;11.784;2023-04-24T01:19:04;24.70;;;13.90;;
68577;SDS011;61668;45.388;11.784;2023-04-24T01:21:34;28.00;;;14.50;;
68577;SDS011;61668;45.388;11.784;2023-04-24T01:24:02;26.10;;;14.60;;
68577;SDS011;61668;45.388;11.784;2023-04-24T01:26:29;27.50;;;15.10;;
68577;SDS011;61668;45.388;11.784;2023-04-24T01:28:56;30.80;;;14.80;;
68577;SDS011;61668;45.388;11.784;2023-04-24T01:31:22;27.10;;;13.80;;
68577;SDS011;61668;45.388;11.784;2023-04-24T01:33:49;26.70;;;13.60;;
68577;SDS011;61668;45.388;11.784;2023-04-24T01:36:16;27.40;;;13.90;;
68577;SDS011;61668;45.388;11.784;2023-04-24T01:38:42;25.40;;;14.10;;
68577;SDS011;61668;45.388;11.784;2023-04-24T01:41:08;27.70;;;14.10;;
68577;SDS011;61668;45.388;11.784;2023-04-24T01:43:34;27.00;;;14.10;;
68577;SDS011;61668;45.388;11.784;2023-04-24T01:45:59;24.30;;;13.10;;
68577;SDS011;61668;45.388;11.784;2023-04-24T01:48:25;29.10;;;14.40;;
68577;SDS011;61668;45.388;11.784;2023-04-24T01:50:51;26.10;;;14.50;;
68577;SDS011;61668;45.388;11.784;2023-04-24T01:53:17;27.90;;;12.60;;
68577;SDS011;61668;45.388;11.784;2023-04-24T01:55:42;28.40;;;13.60;;
68577;SDS011;61668;45.388;11.784;2023-04-24T01:58:08;23.10;;;12.40;;
68577;SDS011;61668;45.388;11.784;2023-04-24T02:00:34;24.40;;;13.10;;
68577;SDS011;61668;45.388;11.784;2023-04-24T02:03:00;21.60;;;12.00;;
68577;SDS011;61668;45.388;11.784;2023-04-24T02:05:27;22.80;;;11.20;;
68577;SDS011;61668;45.388;11.784;2023-04-24T02:07:53;21.80;;;11.00;;
68577;SDS011;61668;45.388;11.784;2023-04-24T02:10:19;22.30;;;11.10;;
68577;SDS011;61668;45.388;11.784;2023-04-24T02:12:45;23.30;;;11.70;;
68577;SDS011;61668;45.388;11.784;2023-04-24T02:15:10;25.20;;;12.40;;
68577;SDS011;61668;45.388;11.784;2023-04-24T02:17:38;23.00;;;12.00;;
68577;SDS011;61668;45.388;11.784;2023-04-24T02:20:05;24.20;;;11.80;;
68577;SDS011;61668;45.388;11.784;2023-04-24T02:22:31;24.10;;;11.80;;
68577;SDS011;61668;45.388;11.784;2023-04-24T02:24:57;22.60;;;11.40;;
68577;SDS011;61668;45.388;11.784;2023-04-24T02:27:23;23.80;;;12.00;;
68577;SDS011;61668;45.388;11.784;2023-04-24T02:29:48;24.80;;;12.40;;
68577;SDS011;61668;45.388;11.784;2023-04-24T02:32:14;20.60;;;10.70;;
68577;SDS011;61668;45.388;11.784;2023-04-24T02:34:40;20.60;;;11.20;;
68577;SDS011;61668;45.388;11.784;2023-04-24T02:37:06;22.00;;;12.20;;
68577;SDS011;61668;45.388;11.784;2023-04-24T02:39:32;22.50;;;12.40;;
68577;SDS011;61668;45.388;11.784;2023-04-24T02:41:58;24.90;;;11.50;;
68577;SDS011;61668;45.388;11.784;2023-04-24T02:44:23;21.70;;;11.40;;
68577;SDS011;61668;45.388;11.784;2023-04-24T02:46:49;21.20;;;11.70;;
68577;SDS011;61668;45.388;11.784;2023-04-24T02:49:15;27.00;;;12.20;;
68577;SDS011;61668;45.388;11.784;2023-04-24T02:51:40;22.50;;;13.00;;
68577;SDS011;61668;45.388;11.784;2023-04-24T02:54:08;21.40;;;11.30;;
68577;SDS011;61668;45.388;11.784;2023-04-24T02:56:35;21.80;;;11.40;;
68577;SDS011;61668;45.388;11.784;2023-04-24T02:59:01;21.30;;;11.10;;
68577;SDS011;61668;45.388;11.784;2023-04-24T03:01:26;24.00;;;12.30;;
68577;SDS011;61668;45.388;11.784;2023-04-24T03:03:52;23.10;;;11.80;;
68577;SDS011;61668;45.388;11.784;2023-04-24T03:06:18;21.90;;;12.30;;
68577;SDS011;61668;45.388;11.784;2023-04-24T03:08:43;23.50;;;11.80;;
68577;SDS011;61668;45.388;11.784;2023-04-24T03:11:09;23.30;;;11.70;;
68577;SDS011;61668;45.388;11.784;2023-04-24T03:13:35;26.80;;;13.50;;
68577;SDS011;61668;45.388;11.784;2023-04-24T03:16:00;24.90;;;12.40;;
68577;SDS011;61668;45.388;11.784;2023-04-24T03:18:27;22.30;;;11.10;;
68577;SDS011;61668;45.388;11.784;2023-04-24T03:20:52;22.90;;;12.00;;
68577;SDS011;61668;45.388;11.784;2023-04-24T03:23:18;22.30;;;10.80;;
68577;SDS011;61668;45.388;11.784;2023-04-24T03:25:44;23.20;;;12.70;;
68577;SDS011;61668;45.388;11.784;2023-04-24T03:28:10;23.00;;;12.20;;
68577;SDS011;61668;45.388;11.784;2023-04-24T03:30:36;21.10;;;12.50;;
68577;SDS011;61668;45.388;11.784;2023-04-24T03:33:02;25.70;;;13.20;;
68577;SDS011;61668;45.388;11.784;2023-04-24T03:35:27;24.10;;;12.50;;
68577;SDS011;61668;45.388;11.784;2023-04-24T03:37:53;24.60;;;12.70;;
68577;SDS011;61668;45.388;11.784;2023-04-24T03:40:19;24.20;;;12.20;;
68577;SDS011;61668;45.388;11.784;2023-04-24T03:42:44;25.60;;;13.20;;
68577;SDS011;61668;45.388;11.784;2023-04-24T03:45:10;22.90;;;12.10;;
68577;SDS011;61668;45.388;11.784;2023-04-24T03:47:36;23.90;;;12.00;;
68577;SDS011;61668;45.388;11.784;2023-04-24T03:50:02;25.10;;;12.60;;
68577;SDS011;61668;45.388;11.784;2023-04-24T03:52:28;23.80;;;12.70;;
68577;SDS011;61668;45.388;11.784;2023-04-24T03:54:53;25.60;;;12.10;;
68577;SDS011;61668;45.388;11.784;2023-04-24T03:57:20;24.00;;;13.10;;
68577;SDS011;61668;45.388;11.784;2023-04-24T03:59:46;23.50;;;12.50;;
68577;SDS011;61668;45.388;11.784;2023-04-24T04:02:12;24.20;;;12.50;;
68577;SDS011;61668;45.388;11.784;2023-04-24T04:04:38;23.30;;;11.90;;
68577;SDS011;61668;45.388;11.784;2023-04-24T04:07:03;24.00;;;11.40;;
68577;SDS011;61668;45.388;11.784;2023-04-24T04:09:31;23.60;;;12.20;;
68577;SDS011;61668;45.388;11.784;2023-04-24T04:11:57;22.10;;;11.50;;
68577;SDS011;61668;45.388;11.784;2023-04-24T04:14:23;26.30;;;13.40;;
68577;SDS011;61668;45.388;11.784;2023-04-24T04:16:49;27.50;;;14.00;;
68577;SDS011;61668;45.388;11.784;2023-04-24T04:19:15;26.50;;;13.80;;
68577;SDS011;61668;45.388;11.784;2023-04-24T04:21:40;23.10;;;12.70;;
68577;SDS011;61668;45.388;11.784;2023-04-24T04:24:06;25.40;;;13.10;;
68577;SDS011;61668;45.388;11.784;2023-04-24T04:26:32;23.60;;;12.50;;
68577;SDS011;61668;45.388;11.784;2023-04-24T04:28:59;25.30;;;12.10;;
68577;SDS011;61668;45.388;11.784;2023-04-24T04:31:28;27.90;;;13.90;;
68577;SDS011;61668;45.388;11.784;2023-04-24T04:33:55;26.00;;;13.30;;
68577;SDS011;61668;45.388;11.784;2023-04-24T04:36:21;27.20;;;13.40;;
68577;SDS011;61668;45.388;11.784;2023-04-24T04:38:49;24.80;;;13.00;;
68577;SDS011;61668;45.388;11.784;2023-04-24T04:41:15;27.30;;;13.90;;
68577;SDS011;61668;45.388;11.784;2023-04-24T04:43:42;24.60;;;13.80;;
68577;SDS011;61668;45.388;11.784;2023-04-24T04:46:07;26.40;;;12.80;;
68577;SDS011;61668;45.388;11.784;2023-04-24T04:48:35;26.60;;;14.80;;
68577;SDS011;61668;45.388;11.784;2023-04-24T04:51:01;26.40;;;14.80;;
68577;SDS011;61668;45.388;11.784;2023-04-24T04:53:27;31.20;;;15.00;;
68577;SDS011;61668;45.388;11.784;2023-04-24T04:55:52;27.30;;;13.70;;
68577;SDS011;61668;45.388;11.784;2023-04-24T04:58:18;26.60;;;13.80;;
68577;SDS011;61668;45.388;11.784;2023-04-24T05:00:44;27.50;;;14.00;;
68577;SDS011;61668;45.388;11.784;2023-04-24T05:03:09;27.00;;;15.30;;
68577;SDS011;61668;45.388;11.784;2023-04-24T05:05:35;28.80;;;14.20;;
68577;SDS011;61668;45.388;11.784;2023-04-24T05:08:08;27.70;;;13.20;;
68577;SDS011;61668;45.388;11.784;2023-04-24T05:10:34;28.00;;;13.00;;
68577;SDS011;61668;45.388;11.784;2023-04-24T05:13:02;25.70;;;12.70;;
68577;SDS011;61668;45.388;11.784;2023-04-24T05:15:29;24.80;;;13.60;;
68577;SDS011;61668;45.388;11.784;2023-04-24T05:17:55;27.20;;;14.00;;
68577;SDS011;61668;45.388;11.784;2023-04-24T05:20:21;24.60;;;14.50;;
68577;SDS011;61668;45.388;11.784;2023-04-24T05:22:47;26.80;;;14.20;;
68577;SDS011;61668;45.388;11.784;2023-04-24T05:25:13;26.10;;;14.40;;
68577;SDS011;61668;45.388;11.784;2023-04-24T05:27:38;29.30;;;13.80;;
68577;SDS011;61668;45.388;11.784;2023-04-24T05:30:05;28.50;;;14.90;;
68577;SDS011;61668;45.388;11.784;2023-04-24T05:32:31;24.00;;;12.70;;
68577;SDS011;61668;45.388;11.784;2023-04-24T05:34:57;27.80;;;14.00;;
68577;SDS011;61668;45.388;11.784;2023-04-24T05:37:23;29.80;;;15.60;;
68577;SDS011;61668;45.388;11.784;2023-04-24T05:39:48;28.90;;;14.80;;
68577;SDS011;61668;45.388;11.784;2023-04-24T05:42:14;30.10;;;15.30;;
68577;SDS011;61668;45.388;11.784;2023-04-24T05:44:40;28.10;;;14.10;;
68577;SDS011;61668;45.388;11.784;2023-04-24T05:47:05;30.70;;;15.90;;
68577;SDS011;61668;45.388;11.784;2023-04-24T05:49:31;29.00;;;14.90;;
68577;SDS011;61668;45.388;11.784;2023-04-24T05:51:57;28.60;;;13.60;;
68577;SDS011;61668;45.388;11.784;2023-04-24T05:54:22;26.70;;;13.90;;
68577;SDS011;61668;45.388;11.784;2023-04-24T05:56:49;27.60;;;13.60;;
68577;SDS011;61668;45.388;11.784;2023-04-24T05:59:16;26.40;;;13.30;;
68577;SDS011;61668;45.388;11.784;2023-04-24T06:01:41;22.60;;;12.00;;
68577;SDS011;61668;45.388;11.784;2023-04-24T06:04:07;27.20;;;13.30;;
68577;SDS011;61668;45.388;11.784;2023-04-24T06:06:34;27.40;;;13.70;;
68577;SDS011;61668;45.388;11.784;2023-04-24T06:09:00;29.20;;;13.40;;
68577;SDS011;61668;45.388;11.784;2023-04-24T06:11:26;28.00;;;13.70;;
68577;SDS011;61668;45.388;11.784;2023-04-24T06:13:52;24.30;;;12.90;;
68577;SDS011;61668;45.388;11.784;2023-04-24T06:16:17;25.20;;;14.20;;
68577;SDS011;61668;45.388;11.784;2023-04-24T06:18:43;21.50;;;11.40;;
68577;SDS011;61668;45.388;11.784;2023-04-24T06:21:09;26.10;;;12.80;;
68577;SDS011;61668;45.388;11.784;2023-04-24T06:23:34;27.40;;;12.00;;
68577;SDS011;61668;45.388;11.784;2023-04-24T06:26:00;23.20;;;11.60;;
68577;SDS011;61668;45.388;11.784;2023-04-24T06:28:26;19.70;;;9.50;;
68577;SDS011;61668;45.388;11.784;2023-04-24T06:30:51;21.40;;;9.20;;
68577;SDS011;61668;45.388;11.784;2023-04-24T06:33:17;18.60;;;9.10;;
68577;SDS011;61668;45.388;11.784;2023-04-24T06:35:43;17.40;;;7.50;;
68577;SDS011;61668;45.388;11.784;2023-04-24T06:38:09;14.30;;;6.10;;
68577;SDS011;61668;45.388;11.784;2023-04-24T06:40:35;13.60;;;6.60;;
68577;SDS011;61668;45.388;11.784;2023-04-24T06:43:00;16.60;;;7.80;;
68577;SDS011;61668;45.388;11.784;2023-04-24T06:45:29;17.10;;;7.70;;
68577;SDS011;61668;45.388;11.784;2023-04-24T06:47:55;15.30;;;7.00;;
68577;SDS011;61668;45.388;11.784;2023-04-24T06:50:21;15.50;;;7.30;;
68577;SDS011;61668;45.388;11.784;2023-04-24T06:52:47;13.80;;;6.60;;
68577;SDS011;61668;45.388;11.784;2023-04-24T06:55:13;15.10;;;6.30;;
68577;SDS011;61668;45.388;11.784;2023-04-24T06:57:40;15.20;;;6.20;;
68577;SDS011;61668;45.388;11.784;2023-04-24T07:00:07;13.50;;;6.40;;
68577;SDS011;61668;45.388;11.784;2023-04-24T07:02:35;11.40;;;5.50;;
68577;SDS011;61668;45.388;11.784;2023-04-24T07:05:00;13.90;;;5.60;;
68577;SDS011;61668;45.388;11.784;2023-04-24T07:07:26;12.10;;;5.70;;
68577;SDS011;61668;45.388;11.784;2023-04-24T07:09:52;13.20;;;5.30;;
68577;SDS011;61668;45.388;11.784;2023-04-24T07:12:19;11.90;;;4.80;;
68577;SDS011;61668;45.388;11.784;2023-04-24T07:14:47;11.70;;;5.60;;
68577;SDS011;61668;45.388;11.784;2023-04-24T07:17:13;13.20;;;6.00;;
68577;SDS011;61668;45.388;11.784;2023-04-24T07:19:40;14.60;;;5.70;;
68577;SDS011;61668;45.388;11.784;2023-04-24T07:22:06;11.70;;;4.70;;
68577;SDS011;61668;45.388;11.784;2023-04-24T07:24:31;13.30;;;5.40;;
68577;SDS011;61668;45.388;11.784;2023-04-24T07:26:58;9.80;;;4.00;;
68577;SDS011;61668;45.388;11.784;2023-04-24T07:29:24;10.30;;;3.90;;
68577;SDS011;61668;45.388;11.784;2023-04-24T07:31:50;8.40;;;2.40;;
68577;SDS011;61668;45.388;11.784;2023-04-24T07:34:17;8.80;;;2.40;;
68577;SDS011;61668;45.388;11.784;2023-04-24T07:36:43;7.80;;;2.00;;
68577;SDS011;61668;45.388;11.784;2023-04-24T07:39:08;7.50;;;1.70;;
68577;SDS011;61668;45.388;11.784;2023-04-24T07:41:34;8.10;;;2.00;;
68577;SDS011;61668;45.388;11.784;2023-04-24T07:44:00;7.20;;;1.90;;
68577;SDS011;61668;45.388;11.784;2023-04-24T07:46:26;6.70;;;1.00;;
68577;SDS011;61668;45.388;11.784;2023-04-24T07:48:55;6.50;;;1.00;;
68577;SDS011;61668;45.388;11.784;2023-04-24T07:51:21;5.40;;;0.50;;
68577;SDS011;61668;45.388;11.784;2023-04-24T07:53:46;5.80;;;0.80;;
68577;SDS011;61668;45.388;11.784;2023-04-24T07:56:12;6.60;;;0.90;;
68577;SDS011;61668;45.388;11.784;2023-04-24T07:58:38;5.70;;;1.10;;
68577;SDS011;61668;45.388;11.784;2023-04-24T08:01:04;5.30;;;0.50;;
68577;SDS011;61668;45.388;11.784;2023-04-24T08:03:30;4.80;;;0.50;;
68577;SDS011;61668;45.388;11.784;2023-04-24T08:05:55;4.50;;;0.30;;
68577;SDS011;61668;45.388;11.784;2023-04-24T08:08:22;4.80;;;0.50;;
68577;SDS011;61668;45.388;11.784;2023-04-24T08:10:48;4.20;;;0.30;;
68577;SDS011;61668;45.388;11.784;2023-04-24T08:13:15;3.70;;;0.30;;
68577;SDS011;61668;45.388;11.784;2023-04-24T08:15:40;4.20;;;0.30;;
68577;SDS011;61668;45.388;11.784;2023-04-24T08:18:06;3.50;;;0.20;;
68577;SDS011;61668;45.388;11.784;2023-04-24T08:20:32;2.50;;;0.20;;
68577;SDS011;61668;45.388;11.784;2023-04-24T08:22:58;2.60;;;0.20;;
68577;SDS011;61668;45.388;11.784;2023-04-24T08:25:24;2.80;;;0.20;;
68577;SDS011;61668;45.388;11.784;2023-04-24T08:27:50;3.70;;;0.30;;
68577;SDS011;61668;45.388;11.784;2023-04-24T08:30:16;3.90;;;0.30;;
68577;SDS011;61668;45.388;11.784;2023-04-24T08:32:43;3.60;;;0.30;;
68577;SDS011;61668;45.388;11.784;2023-04-24T08:35:09;3.60;;;0.20;;
68577;SDS011;61668;45.388;11.784;2023-04-24T08:37:35;2.60;;;0.20;;
68577;SDS011;61668;45.388;11.784;2023-04-24T08:40:05;3.40;;;0.20;;
68577;SDS011;61668;45.388;11.784;2023-04-24T08:42:37;3.40;;;0.30;;
68577;SDS011;61668;45.388;11.784;2023-04-24T08:45:03;4.00;;;0.30;;
68577;SDS011;61668;45.388;11.784;2023-04-24T08:47:29;4.30;;;0.30;;
68577;SDS011;61668;45.388;11.784;2023-04-24T08:49:56;3.80;;;0.30;;
68577;SDS011;61668;45.388;11.784;2023-04-24T08:52:22;4.20;;;0.30;;
68577;SDS011;61668;45.388;11.784;2023-04-24T08:54:48;4.40;;;0.40;;
68577;SDS011;61668;45.388;11.784;2023-04-24T08:57:15;5.10;;;0.50;;
68577;SDS011;61668;45.388;11.784;2023-04-24T08:59:41;5.10;;;0.40;;
68577;SDS011;61668;45.388;11.784;2023-04-24T09:02:10;5.10;;;0.40;;
68577;SDS011;61668;45.388;11.784;2023-04-24T09:04:37;5.10;;;0.40;;
68577;SDS011;61668;45.388;11.784;2023-04-24T09:07:03;5.10;;;0.40;;
68577;SDS011;61668;45.388;11.784;2023-04-24T09:09:32;5.20;;;0.50;;
68577;SDS011;61668;45.388;11.784;2023-04-24T09:11:58;5.00;;;0.40;;
68577;SDS011;61668;45.388;11.784;2023-04-24T09:14:26;4.30;;;0.40;;
68577;SDS011;61668;45.388;11.784;2023-04-24T09:16:51;4.70;;;0.50;;
68577;SDS011;61668;45.388;11.784;2023-04-24T09:19:17;5.10;;;0.60;;
68577;SDS011;61668;45.388;11.784;2023-04-24T09:21:45;4.80;;;0.50;;
68577;SDS011;61668;45.388;11.784;2023-04-24T09:24:19;5.40;;;0.50;;
68577;SDS011;61668;45.388;11.784;2023-04-24T09:26:48;5.50;;;0.90;;
68577;SDS011;61668;45.388;11.784;2023-04-24T09:29:24;5.30;;;0.80;;
68577;SDS011;61668;45.388;11.784;2023-04-24T09:31:50;6.50;;;0.90;;
68577;SDS011;61668;45.388;11.784;2023-04-24T09:34:22;5.40;;;0.50;;
68577;SDS011;61668;45.388;11.784;2023-04-24T09:36:49;5.00;;;0.50;;
68577;SDS011;61668;45.388;11.784;2023-04-24T09:39:16;4.50;;;0.30;;
68577;SDS011;61668;45.388;11.784;2023-04-24T09:44:22;3.50;;;0.30;;
68577;SDS011;61668;45.388;11.784;2023-04-24T09:46:59;4.20;;;0.30;;
68577;SDS011;61668;45.388;11.784;2023-04-24T09:49:30;3.40;;;0.30;;
68577;SDS011;61668;45.388;11.784;2023-04-24T09:54:29;4.30;;;0.40;;
68577;SDS011;61668;45.388;11.784;2023-04-24T09:56:55;4.20;;;0.30;;
68577;SDS011;61668;45.388;11.784;2023-04-24T09:59:22;3.80;;;0.30;;
68577;SDS011;61668;45.388;11.784;2023-04-24T10:01:48;3.40;;;0.30;;
68577;SDS011;61668;45.388;11.784;2023-04-24T10:04:26;3.80;;;0.20;;
68577;SDS011;61668;45.388;11.784;2023-04-24T10:06:55;3.50;;;0.30;;
68577;SDS011;61668;45.388;11.784;2023-04-24T10:09:24;4.30;;;0.30;;
68577;SDS011;61668;45.388;11.784;2023-04-24T10:11:54;3.80;;;0.30;;
68577;SDS011;61668;45.388;11.784;2023-04-24T10:14:23;3.70;;;0.40;;
68577;SDS011;61668;45.388;11.784;2023-04-24T10:16:51;4.20;;;0.30;;
68577;SDS011;61668;45.388;11.784;2023-04-24T10:19:18;5.70;;;0.50;;
68577;SDS011;61668;45.388;11.784;2023-04-24T10:21:45;4.30;;;0.40;;
68577;SDS011;61668;45.388;11.784;2023-04-24T10:24:13;4.10;;;0.30;;
68577;SDS011;61668;45.388;11.784;2023-04-24T10:26:41;3.30;;;0.30;;
68577;SDS011;61668;45.388;11.784;2023-04-24T10:29:10;3.30;;;0.30;;
68577;SDS011;61668;45.388;11.784;2023-04-24T10:31:38;3.10;;;0.30;;
68577;SDS011;61668;45.388;11.784;2023-04-24T10:34:09;3.00;;;0.30;;
68577;SDS011;61668;45.388;11.784;2023-04-24T10:36:38;3.00;;;0.30;;
68577;SDS011;61668;45.388;11.784;2023-04-24T10:39:10;3.00;;;0.20;;
68577;SDS011;61668;45.388;11.784;2023-04-24T10:41:37;2.80;;;0.30;;
68577;SDS011;61668;45.388;11.784;2023-04-24T10:44:07;2.30;;;0.20;;
68577;SDS011;61668;45.388;11.784;2023-04-24T10:46:35;3.00;;;0.40;;
68577;SDS011;61668;45.388;11.784;2023-04-24T10:49:06;3.10;;;0.30;;
68577;SDS011;61668;45.388;11.784;2023-04-24T10:51:49;2.80;;;0.30;;
68577;SDS011;61668;45.388;11.784;2023-04-24T10:54:24;2.40;;;0.20;;
68577;SDS011;61668;45.388;11.784;2023-04-24T11:00:16;3.40;;;0.20;;
68577;SDS011;61668;45.388;11.784;2023-04-24T11:02:47;4.70;;;0.20;;
68577;SDS011;61668;45.388;11.784;2023-04-24T11:05:19;3.60;;;0.30;;
68577;SDS011;61668;45.388;11.784;2023-04-24T11:08:24;4.40;;;0.50;;
68577;SDS011;61668;45.388;11.784;2023-04-24T11:11:00;3.40;;;0.40;;
68577;SDS011;61668;45.388;11.784;2023-04-24T11:27:11;2.60;;;0.30;;
68577;SDS011;61668;45.388;11.784;2023-04-24T11:29:51;3.80;;;0.40;;
68577;SDS011;61668;45.388;11.784;2023-04-24T11:32:38;3.70;;;0.20;;
68577;SDS011;61668;45.388;11.784;2023-04-24T11:35:06;4.70;;;0.40;;
68577;SDS011;61668;45.388;11.784;2023-04-24T11:37:48;4.40;;;0.30;;
68577;SDS011;61668;45.388;11.784;2023-04-24T11:40:16;4.20;;;0.50;;
68577;SDS011;61668;45.388;11.784;2023-04-24T11:42:47;4.30;;;0.50;;
68577;SDS011;61668;45.388;11.784;2023-04-24T11:47:53;3.40;;;0.30;;
68577;SDS011;61668;45.388;11.784;2023-04-24T11:50:22;4.50;;;0.30;;
68577;SDS011;61668;45.388;11.784;2023-04-24T11:52:49;4.80;;;0.40;;
68577;SDS011;61668;45.388;11.784;2023-04-24T11:57:52;4.00;;;0.30;;
68577;SDS011;61668;45.388;11.784;2023-04-24T12:00:23;4.10;;;0.40;;
68577;SDS011;61668;45.388;11.784;2023-04-24T12:03:04;4.50;;;0.40;;
68577;SDS011;61668;45.388;11.784;2023-04-24T12:05:30;3.80;;;0.40;;
68577;SDS011;61668;45.388;11.784;2023-04-24T12:07:56;3.60;;;0.40;;
68577;SDS011;61668;45.388;11.784;2023-04-24T12:10:24;5.80;;;0.30;;
68577;SDS011;61668;45.388;11.784;2023-04-24T12:12:52;3.60;;;0.30;;
68577;SDS011;61668;45.388;11.784;2023-04-24T12:15:19;4.90;;;0.50;;
68577;SDS011;61668;45.388;11.784;2023-04-24T12:17:46;4.40;;;0.40;;
68577;SDS011;61668;45.388;11.784;2023-04-24T12:20:13;5.00;;;0.50;;
68577;SDS011;61668;45.388;11.784;2023-04-24T12:22:51;3.80;;;0.30;;
68577;SDS011;61668;45.388;11.784;2023-04-24T12:25:26;4.20;;;0.30;;
68577;SDS011;61668;45.388;11.784;2023-04-24T12:28:11;3.00;;;0.30;;
68577;SDS011;61668;45.388;11.784;2023-04-24T12:30:51;5.20;;;0.60;;
68577;SDS011;61668;45.388;11.784;2023-04-24T12:33:21;4.50;;;0.50;;
68577;SDS011;61668;45.388;11.784;2023-04-24T12:35:51;3.90;;;0.40;;
68577;SDS011;61668;45.388;11.784;2023-04-24T12:38:22;3.90;;;0.30;;
68577;SDS011;61668;45.388;11.784;2023-04-24T12:41:09;5.30;;;0.60;;
68577;SDS011;61668;45.388;11.784;2023-04-24T12:43:36;4.10;;;0.40;;
68577;SDS011;61668;45.388;11.784;2023-04-24T12:46:03;3.80;;;0.30;;
68577;SDS011;61668;45.388;11.784;2023-04-24T12:48:30;3.60;;;0.30;;
68577;SDS011;61668;45.388;11.784;2023-04-24T12:50:59;3.50;;;0.40;;
68577;SDS011;61668;45.388;11.784;2023-04-24T12:53:28;3.60;;;0.30;;
68577;SDS011;61668;45.388;11.784;2023-04-24T12:55:57;4.20;;;0.40;;
68577;SDS011;61668;45.388;11.784;2023-04-24T12:58:23;4.20;;;0.40;;
68577;SDS011;61668;45.388;11.784;2023-04-24T13:00:49;4.00;;;0.40;;
68577;SDS011;61668;45.388;11.784;2023-04-24T13:03:15;3.90;;;0.40;;
68577;SDS011;61668;45.388;11.784;2023-04-24T13:05:43;4.30;;;0.70;;
68577;SDS011;61668;45.388;11.784;2023-04-24T13:08:09;5.30;;;0.70;;
68577;SDS011;61668;45.388;11.784;2023-04-24T13:10:35;4.30;;;0.50;;
68577;SDS011;61668;45.388;11.784;2023-04-24T13:13:01;4.80;;;0.50;;
68577;SDS011;61668;45.388;11.784;2023-04-24T13:15:27;4.70;;;0.60;;
68577;SDS011;61668;45.388;11.784;2023-04-24T13:17:52;5.20;;;0.40;;
68577;SDS011;61668;45.388;11.784;2023-04-24T13:20:18;4.20;;;0.60;;
68577;SDS011;61668;45.388;11.784;2023-04-24T13:22:44;6.70;;;0.90;;
68577;SDS011;61668;45.388;11.784;2023-04-24T13:25:10;4.50;;;0.40;;
68577;SDS011;61668;45.388;11.784;2023-04-24T13:27:38;3.80;;;0.40;;
68577;SDS011;61668;45.388;11.784;2023-04-24T13:30:05;5.00;;;0.60;;
68577;SDS011;61668;45.388;11.784;2023-04-24T13:32:32;4.20;;;0.50;;
68577;SDS011;61668;45.388;11.784;2023-04-24T13:34:58;5.00;;;1.20;;
68577;SDS011;61668;45.388;11.784;2023-04-24T13:37:24;4.60;;;0.40;;
68577;SDS011;61668;45.388;11.784;2023-04-24T13:39:50;4.40;;;0.70;;
68577;SDS011;61668;45.388;11.784;2023-04-24T13:42:16;5.40;;;1.10;;
68577;SDS011;61668;45.388;11.784;2023-04-24T13:44:42;5.10;;;0.50;;
68577;SDS011;61668;45.388;11.784;2023-04-24T13:47:08;4.20;;;0.80;;
68577;SDS011;61668;45.388;11.784;2023-04-24T13:49:33;5.10;;;0.60;;
68577;SDS011;61668;45.388;11.784;2023-04-24T13:51:59;5.10;;;0.50;;
68577;SDS011;61668;45.388;11.784;2023-04-24T13:54:25;6.00;;;0.60;;
68577;SDS011;61668;45.388;11.784;2023-04-24T13:56:51;6.30;;;0.90;;
68577;SDS011;61668;45.388;11.784;2023-04-24T13:59:17;4.70;;;0.70;;
68577;SDS011;61668;45.388;11.784;2023-04-24T14:01:45;5.30;;;0.90;;
68577;SDS011;61668;45.388;11.784;2023-04-24T14:04:11;4.70;;;0.80;;
68577;SDS011;61668;45.388;11.784;2023-04-24T14:06:37;5.10;;;0.60;;
68577;SDS011;61668;45.388;11.784;2023-04-24T14:09:02;5.40;;;0.90;;
68577;SDS011;61668;45.388;11.784;2023-04-24T14:11:28;4.80;;;0.70;;
68577;SDS011;61668;45.388;11.784;2023-04-24T14:13:55;3.90;;;0.40;;
68577;SDS011;61668;45.388;11.784;2023-04-24T14:16:23;4.60;;;0.60;;
68577;SDS011;61668;45.388;11.784;2023-04-24T14:18:50;4.80;;;0.60;;
68577;SDS011;61668;45.388;11.784;2023-04-24T14:21:16;4.70;;;0.60;;
68577;SDS011;61668;45.388;11.784;2023-04-24T14:23:41;4.10;;;0.50;;
68577;SDS011;61668;45.388;11.784;2023-04-24T14:26:07;4.90;;;0.60;;
68577;SDS011;61668;45.388;11.784;2023-04-24T14:28:33;4.10;;;0.40;;
68577;SDS011;61668;45.388;11.784;2023-04-24T14:31:00;4.90;;;0.60;;
68577;SDS011;61668;45.388;11.784;2023-04-24T14:33:25;5.30;;;0.70;;
68577;SDS011;61668;45.388;11.784;2023-04-24T14:35:51;4.30;;;0.50;;
68577;SDS011;61668;45.388;11.784;2023-04-24T14:38:17;4.30;;;0.50;;
68577;SDS011;61668;45.388;11.784;2023-04-24T14:40:42;5.20;;;0.40;;
68577;SDS011;61668;45.388;11.784;2023-04-24T14:43:08;4.70;;;0.80;;
68577;SDS011;61668;45.388;11.784;2023-04-24T14:45:34;3.20;;;0.30;;
68577;SDS011;61668;45.388;11.784;2023-04-24T14:48:00;4.20;;;0.40;;